createdAt,value
2022-09-14T00:00:13.088Z,94825.19
2022-09-14T00:03:14.888Z,94824.16
2022-09-14T00:06:19.096Z,94812.09
2022-09-14T00:09:24.938Z,94814.03
2022-09-14T00:12:28.331Z,94808.13
2022-09-14T00:15:34.861Z,94804.28
2022-09-14T00:18:38.079Z,94797.75
2022-09-14T00:21:40.181Z,94790.13
2022-09-14T00:24:42.090Z,94784.25
2022-09-14T00:27:44.948Z,94772.19
2022-09-14T00:30:48.095Z,94768.13
2022-09-14T00:33:51.806Z,94758.66
2022-09-14T00:36:55.337Z,94755.28
2022-09-14T00:39:57.276Z,94754.44
2022-09-14T00:43:01.619Z,94752.03
2022-09-14T00:46:05.070Z,94758.69
2022-09-14T00:49:08.812Z,94772.03
2022-09-14T00:52:14.804Z,94780.44
2022-09-14T00:55:21.754Z,94779.97
2022-09-14T00:58:23.851Z,94779.97
2022-09-14T01:01:29.083Z,94783.25
2022-09-14T01:04:31.376Z,94781.72
2022-09-14T01:07:43.126Z,94778.44
2022-09-14T01:10:57.242Z,94770.59
2022-09-14T01:14:03.351Z,94766.00
2022-09-14T01:17:12.609Z,94768.84
2022-09-14T01:20:19.386Z,94764.41
2022-09-14T01:23:27.303Z,94760.22
2022-09-14T01:26:44.878Z,94756.63
2022-09-14T01:29:51.511Z,94741.41
2022-09-14T01:32:55.115Z,94736.81
2022-09-14T01:36:00.813Z,94734.66
2022-09-14T01:39:03.383Z,94733.28
2022-09-14T01:42:06.833Z,94733.59
2022-09-14T01:45:13.962Z,94736.38
2022-09-14T01:48:22.740Z,94731.22
2022-09-14T01:51:29.656Z,94724.25
2022-09-14T01:54:34.212Z,94715.53
2022-09-14T01:57:39.075Z,94703.88
2022-09-14T02:00:43.915Z,94695.28
2022-09-14T02:03:48.003Z,94704.00
2022-09-14T02:06:50.506Z,94711.63
2022-09-14T02:09:54.590Z,94710.09
2022-09-14T02:12:56.782Z,94703.19
2022-09-14T02:16:01.165Z,94702.59
2022-09-14T02:19:04.411Z,94704.22
2022-09-14T02:22:07.091Z,94693.00
2022-09-14T02:25:08.887Z,94688.34
2022-09-14T02:28:10.669Z,94705.59
2022-09-14T02:31:19.839Z,94699.41
2022-09-14T02:34:28.170Z,94692.22
2022-09-14T02:37:35.513Z,94691.91
2022-09-14T02:40:43.738Z,94684.13
2022-09-14T02:43:49.321Z,94676.78
2022-09-14T02:46:58.516Z,94670.25
2022-09-14T02:50:05.416Z,94671.03
2022-09-14T02:53:12.649Z,94665.38
2022-09-14T02:56:15.162Z,94667.16
2022-09-14T02:59:16.873Z,94671.53
2022-09-14T03:02:23.606Z,94663.88
2022-09-14T03:05:25.706Z,94659.28
2022-09-14T03:08:28.475Z,94656.44
2022-09-14T03:11:30.347Z,94655.56
2022-09-14T03:14:34.443Z,94669.81
2022-09-14T03:17:38.924Z,94673.91
2022-09-14T03:20:40.728Z,94673.34
2022-09-14T03:23:44.855Z,94672.16
2022-09-14T03:26:48.147Z,94680.44
2022-09-14T03:29:51.901Z,94673.91
2022-09-14T03:32:57.707Z,94683.84
2022-09-14T03:36:00.161Z,94679.47
2022-09-14T03:39:02.993Z,94675.78
2022-09-14T03:42:07.772Z,94683.72
2022-09-14T03:45:11.716Z,94677.41
2022-09-14T03:48:14.805Z,94691.03
2022-09-14T03:51:16.561Z,94695.91
2022-09-14T03:54:26.346Z,94687.53
2022-09-14T03:57:28.143Z,94689.84
2022-09-14T04:00:31.370Z,94693.97
2022-09-14T04:03:36.291Z,94679.38
2022-09-14T04:06:38.111Z,94663.31
2022-09-14T04:09:39.764Z,94657.13
2022-09-14T04:12:42.715Z,94646.09
2022-09-14T04:15:44.699Z,94657.78
2022-09-14T04:18:48.007Z,94676.41
2022-09-14T04:21:51.435Z,94677.09
2022-09-14T04:24:53.597Z,94672.84
2022-09-14T04:28:16.828Z,94668.25
2022-09-14T04:31:18.076Z,94662.38
2022-09-14T04:34:23.023Z,94662.38
2022-09-14T04:37:24.790Z,94665.41
2022-09-14T04:40:26.852Z,94663.53
2022-09-14T04:43:28.879Z,94655.72
2022-09-14T04:46:31.733Z,94662.00
2022-09-14T04:49:35.936Z,94659.97
2022-09-14T04:52:40.329Z,94653.66
2022-09-14T04:55:42.146Z,94666.81
2022-09-14T04:58:51.199Z,94665.97
2022-09-14T05:01:54.478Z,94661.63
2022-09-14T05:04:57.706Z,94662.69
2022-09-14T05:07:59.633Z,94652.88
2022-09-14T05:11:01.413Z,94652.00
2022-09-14T05:14:04.919Z,94655.19
2022-09-14T05:17:06.919Z,94650.03
2022-09-14T05:20:16.724Z,94635.97
2022-09-14T05:23:18.591Z,94632.19
2022-09-14T05:26:21.041Z,94642.94
2022-09-14T05:29:23.613Z,94644.69
2022-09-14T05:32:26.293Z,94650.34
2022-09-14T05:35:29.715Z,94639.78
2022-09-14T05:38:31.902Z,94629.75
2022-09-14T05:41:34.944Z,94633.88
2022-09-14T05:44:37.805Z,94629.53
2022-09-14T05:47:39.553Z,94627.75
2022-09-14T05:50:44.545Z,94628.84
2022-09-14T05:53:50.108Z,94622.31
2022-09-14T05:56:51.853Z,94625.78
2022-09-14T05:59:54.447Z,94625.25
2022-09-14T06:02:56.240Z,94627.63
2022-09-14T06:06:02.760Z,94631.03
2022-09-14T06:09:05.882Z,94619.22
2022-09-14T06:12:10.746Z,94618.47
2022-09-14T06:15:12.991Z,94624.44
2022-09-14T06:18:15.358Z,94614.59
2022-09-14T06:21:21.445Z,94615.69
2022-09-14T06:24:24.430Z,94621.47
2022-09-14T06:27:28.415Z,94606.16
2022-09-14T06:30:30.232Z,94639.56
2022-09-14T06:33:32.083Z,94623.41
2022-09-14T06:36:37.331Z,94657.78
2022-09-14T06:39:39.948Z,94655.84
2022-09-14T06:42:42.306Z,94678.41
2022-09-14T06:45:44.260Z,94685.97
2022-09-14T06:48:47.215Z,94706.28
2022-09-14T06:51:51.754Z,94697.13
2022-09-14T06:54:53.633Z,94676.94
2022-09-14T06:57:55.362Z,94672.72
2022-09-14T07:01:01.070Z,94689.16
2022-09-14T07:04:03.714Z,94684.78
2022-09-14T07:07:06.934Z,94686.41
2022-09-14T07:10:08.836Z,94692.31
2022-09-14T07:13:10.566Z,94686.28
2022-09-14T07:16:12.859Z,94686.91
2022-09-14T07:19:18.546Z,94685.78
2022-09-14T07:22:22.004Z,94690.53
2022-09-14T07:25:25.334Z,94694.25
2022-09-14T07:28:28.250Z,94706.56
2022-09-14T07:31:31.397Z,94716.13
2022-09-14T07:34:33.235Z,94699.63
2022-09-14T07:37:37.014Z,94678.00
2022-09-14T07:40:40.026Z,94687.41
2022-09-14T07:43:42.640Z,94695.19
2022-09-14T07:46:46.488Z,94684.78
2022-09-14T07:49:48.227Z,94697.97
2022-09-14T07:52:51.533Z,94705.72
2022-09-14T07:55:57.946Z,94708.44
2022-09-14T07:59:17.618Z,94698.63
2022-09-14T08:02:23.132Z,94686.06
2022-09-14T08:05:25.118Z,94691.03
2022-09-14T08:08:29.694Z,94703.34
2022-09-14T08:11:32.148Z,94707.72
2022-09-14T08:14:33.896Z,94710.44
2022-09-14T08:17:35.584Z,94705.63
2022-09-14T08:20:37.372Z,94704.03
2022-09-14T08:23:43.418Z,94696.31
2022-09-14T08:26:45.282Z,94699.31
2022-09-14T08:29:47.133Z,94696.16
2022-09-14T08:32:49.496Z,94694.81
2022-09-14T08:35:58.902Z,94694.06
2022-09-14T08:39:03.732Z,94689.97
2022-09-14T08:42:05.757Z,94682.28
2022-09-14T08:45:09.723Z,94682.59
2022-09-14T08:48:17.658Z,94675.63
2022-09-14T08:51:19.561Z,94680.19
2022-09-14T08:54:24.242Z,94672.59
2022-09-14T08:57:35.046Z,94663.94
2022-09-14T09:00:40.150Z,94667.63
2022-09-14T09:04:06.149Z,94657.81
2022-09-14T09:07:13.113Z,94661.91
2022-09-14T09:10:18.940Z,94666.66
2022-09-14T09:13:24.414Z,94682.97
2022-09-14T09:16:27.914Z,94677.25
2022-09-14T09:19:34.517Z,94685.63
2022-09-14T09:22:39.848Z,94670.44
2022-09-14T09:25:58.885Z,94674.09
2022-09-14T09:29:03.627Z,94677.59
2022-09-14T09:32:08.608Z,94671.34
2022-09-14T09:35:13.757Z,94682.75
2022-09-14T09:38:16.741Z,94681.19
2022-09-14T09:41:23.887Z,94676.00
2022-09-14T09:44:27.037Z,94677.75
2022-09-14T09:47:30.738Z,94668.91
2022-09-14T09:50:33.033Z,94677.41
2022-09-14T09:53:36.942Z,94669.41
2022-09-14T09:56:41.108Z,94687.50
2022-09-14T09:59:44.592Z,94669.59
2022-09-14T10:02:48.459Z,94677.88
2022-09-14T10:05:59.548Z,94676.13
2022-09-14T10:09:11.769Z,94675.53
2022-09-14T10:12:15.845Z,94675.63
2022-09-14T10:15:21.291Z,94684.44
2022-09-14T10:18:27.076Z,94673.81
2022-09-14T10:21:31.141Z,94669.47
2022-09-14T10:24:35.914Z,94655.22
2022-09-14T10:27:45.243Z,94652.72
2022-09-14T10:30:51.842Z,94650.88
2022-09-14T10:33:54.650Z,94635.50
2022-09-14T10:37:04.296Z,94638.31
2022-09-14T10:40:13.480Z,94639.69
2022-09-14T10:43:22.444Z,94636.53
2022-09-14T10:46:28.660Z,94614.63
2022-09-14T10:49:38.784Z,94613.28
2022-09-14T10:52:44.816Z,94605.94
2022-09-14T10:55:52.431Z,94606.53
2022-09-14T10:59:09.543Z,94593.13
2022-09-14T11:02:21.896Z,94577.13
2022-09-14T11:05:25.843Z,94570.09
2022-09-14T11:08:31.412Z,94570.59
2022-09-14T11:11:41.043Z,94569.81
2022-09-14T11:14:48.827Z,94562.13
2022-09-14T11:18:02.696Z,94555.19
2022-09-14T11:21:10.527Z,94561.75
2022-09-14T11:24:17.658Z,94547.22
2022-09-14T11:27:25.292Z,94554.31
2022-09-14T11:30:30.866Z,94536.75
2022-09-14T11:33:36.462Z,94543.06
2022-09-14T11:36:41.352Z,94546.81
2022-09-14T11:39:46.076Z,94551.81
2022-09-14T11:42:51.723Z,94524.22
2022-09-14T11:45:56.259Z,94519.66
2022-09-14T11:49:05.072Z,94499.25
2022-09-14T11:52:13.578Z,94497.69
2022-09-14T11:55:17.312Z,94522.81
2022-09-14T11:58:20.800Z,94515.47
2022-09-14T12:01:27.240Z,94517.56
2022-09-14T12:04:30.671Z,94516.06
2022-09-14T12:07:51.207Z,94509.25
2022-09-14T12:11:04.935Z,94518.06
2022-09-14T12:14:15.140Z,94503.28
2022-09-14T12:17:38.419Z,94505.59
2022-09-14T12:20:46.039Z,94494.63
2022-09-14T12:23:49.988Z,94493.66
2022-09-14T12:26:52.292Z,94508.22
2022-09-14T12:29:54.929Z,94527.22
2022-09-14T12:32:59.386Z,94509.66
2022-09-14T12:36:03.382Z,94497.88
2022-09-14T12:39:07.275Z,94515.94
2022-09-14T12:42:25.879Z,94507.22
2022-09-14T12:45:46.487Z,94499.72
2022-09-14T12:48:55.442Z,94483.69
2022-09-14T12:52:02.768Z,94496.75
2022-09-14T12:55:16.027Z,94485.19
2022-09-14T12:58:24.094Z,94479.19
2022-09-14T13:01:30.629Z,94472.13
2022-09-14T13:04:35.893Z,94461.28
2022-09-14T13:07:39.431Z,94456.75
2022-09-14T13:10:45.050Z,94463.06
2022-09-14T13:13:48.906Z,94453.00
2022-09-14T13:16:52.467Z,94469.34
2022-09-14T13:19:54.867Z,94466.56
2022-09-14T13:22:58.158Z,94460.34
2022-09-14T13:26:00.360Z,94457.09
2022-09-14T13:29:02.568Z,94478.91
2022-09-14T13:32:06.333Z,94472.34
2022-09-14T13:35:16.114Z,94476.84
2022-09-14T13:38:22.815Z,94483.88
2022-09-14T13:41:25.446Z,94491.16
2022-09-14T13:44:33.694Z,94497.16
2022-09-14T13:47:39.118Z,94491.88
2022-09-14T13:50:44.433Z,94491.16
2022-09-14T13:53:48.556Z,94497.97
2022-09-14T13:57:05.459Z,94497.19
2022-09-14T14:00:16.430Z,94486.91
2022-09-14T14:03:24.541Z,94488.69
2022-09-14T14:06:28.993Z,94493.72
2022-09-14T14:09:40.525Z,94490.72
2022-09-14T14:12:45.185Z,94492.25
2022-09-14T14:15:50.486Z,94484.72
2022-09-14T14:18:56.097Z,94490.25
2022-09-14T14:22:11.747Z,94482.91
2022-09-14T14:25:27.729Z,94483.16
2022-09-14T14:28:30.425Z,94481.38
2022-09-14T14:31:33.774Z,94490.41
2022-09-14T14:34:35.841Z,94476.06
2022-09-14T14:37:39.326Z,94447.19
2022-09-14T14:40:43.245Z,94452.91
2022-09-14T14:43:45.312Z,94452.66
2022-09-14T14:46:51.021Z,94448.13
2022-09-14T14:49:53.343Z,94456.41
2022-09-14T14:52:55.334Z,94460.38
2022-09-14T14:55:59.937Z,94453.63
2022-09-14T14:59:02.485Z,94450.59
2022-09-14T15:02:05.713Z,94447.31
2022-09-14T15:05:08.801Z,94454.06
2022-09-14T15:08:10.908Z,94459.09
2022-09-14T15:11:16.653Z,94452.06
2022-09-14T15:14:21.332Z,94443.53
2022-09-14T15:17:27.342Z,94436.22
2022-09-14T15:20:29.211Z,94441.75
2022-09-14T15:23:31.314Z,94444.03
2022-09-14T15:26:35.642Z,94434.44
2022-09-14T15:29:37.587Z,94441.41
2022-09-14T15:32:41.484Z,94436.66
2022-09-14T15:35:43.306Z,94433.09
2022-09-14T15:38:45.727Z,94425.59
2022-09-14T15:41:49.170Z,94422.75
2022-09-14T15:44:51.135Z,94415.16
2022-09-14T15:47:53.140Z,94416.91
2022-09-14T15:50:54.961Z,94420.69
2022-09-14T15:53:57.724Z,94413.22
2022-09-14T15:57:04.780Z,94409.00
2022-09-14T16:00:07.942Z,94407.50
2022-09-14T16:03:10.390Z,94409.97
2022-09-14T16:06:13.249Z,94402.94
2022-09-14T16:09:16.233Z,94401.94
2022-09-14T16:12:19.474Z,94406.41
2022-09-14T16:15:22.768Z,94409.13
2022-09-14T16:18:25.587Z,94404.34
2022-09-14T16:21:29.769Z,94400.16
2022-09-14T16:24:32.069Z,94408.16
2022-09-14T16:27:35.743Z,94405.44
2022-09-14T16:30:38.534Z,94412.44
2022-09-14T16:33:47.720Z,94426.47
2022-09-14T16:36:50.841Z,94418.69
2022-09-14T16:39:52.602Z,94419.69
2022-09-14T16:42:55.845Z,94430.09
2022-09-14T16:46:06.323Z,94441.56
2022-09-14T16:49:08.442Z,94446.38
2022-09-14T16:52:11.925Z,94466.19
2022-09-14T16:55:13.983Z,94483.34
2022-09-14T16:58:17.121Z,94504.34
2022-09-14T17:01:19.908Z,94504.50
2022-09-14T17:04:24.237Z,94517.47
2022-09-14T17:07:26.385Z,94488.00
2022-09-14T17:10:28.223Z,94495.41
2022-09-14T17:13:32.083Z,94507.69
2022-09-14T17:16:34.728Z,94513.47
2022-09-14T17:19:39.425Z,94510.59
2022-09-14T17:22:46.508Z,94511.09
2022-09-14T17:25:51.057Z,94529.13
2022-09-14T17:28:56.705Z,94536.59
2022-09-14T17:31:59.505Z,94538.88
2022-09-14T17:35:01.646Z,94546.69
2022-09-14T17:38:03.532Z,94564.59
2022-09-14T17:41:06.480Z,94563.59
2022-09-14T17:44:12.258Z,94559.25
2022-09-14T17:47:15.957Z,94565.84
2022-09-14T17:50:18.321Z,94583.50
2022-09-14T17:53:22.355Z,94575.91
2022-09-14T17:56:26.644Z,94558.53
2022-09-14T17:59:30.185Z,94574.53
2022-09-14T18:02:32.251Z,94560.47
2022-09-14T18:05:34.033Z,94542.00
2022-09-14T18:08:38.182Z,94564.94
2022-09-14T18:11:40.612Z,94572.97
2022-09-14T18:14:44.190Z,94577.47
2022-09-14T18:17:46.337Z,94559.25
2022-09-14T18:20:49.737Z,94571.28
2022-09-14T18:23:53.351Z,94579.66
2022-09-14T18:26:55.503Z,94567.50
2022-09-14T18:30:00.193Z,94560.63
2022-09-14T18:33:02.225Z,94563.38
2022-09-14T18:36:06.391Z,94568.53
2022-09-14T18:39:10.617Z,94570.19
2022-09-14T18:42:16.369Z,94574.56
2022-09-14T18:45:20.994Z,94556.91
2022-09-14T18:48:24.686Z,94561.94
2022-09-14T18:51:29.170Z,94563.50
2022-09-14T18:54:31.843Z,94566.28
2022-09-14T18:57:34.534Z,94567.66
2022-09-14T19:00:43.200Z,94569.03
2022-09-14T19:03:46.501Z,94562.66
2022-09-14T19:06:51.744Z,94577.88
2022-09-14T19:09:56.208Z,94578.47
2022-09-14T19:12:58.612Z,94574.03
2022-09-14T19:16:06.501Z,94567.81
2022-09-14T19:19:12.083Z,94565.84
2022-09-14T19:22:14.352Z,94560.78
2022-09-14T19:25:17.794Z,94528.91
2022-09-14T19:28:21.562Z,94526.75
2022-09-14T19:31:25.072Z,94542.38
2022-09-14T19:34:29.552Z,94538.09
2022-09-14T19:37:32.493Z,94533.66
2022-09-14T19:40:34.935Z,94519.69
2022-09-14T19:43:37.387Z,94530.50
2022-09-14T19:46:41.575Z,94530.47
2022-09-14T19:49:43.655Z,94527.88
2022-09-14T19:52:55.188Z,94529.78
2022-09-14T19:56:03.287Z,94528.22
2022-09-14T19:59:05.756Z,94527.19
2022-09-14T20:02:10.808Z,94524.22
2022-09-14T20:05:15.440Z,94534.59
2022-09-14T20:08:17.919Z,94533.84
2022-09-14T20:11:21.017Z,94530.69
2022-09-14T20:14:24.896Z,94533.75
2022-09-14T20:17:31.301Z,94541.78
2022-09-14T20:20:36.087Z,94546.09
2022-09-14T20:23:48.642Z,94553.69
2022-09-14T20:27:00.764Z,94553.72
2022-09-14T20:30:03.548Z,94565.53
2022-09-14T20:33:07.200Z,94572.38
2022-09-14T20:36:10.733Z,94570.28
2022-09-14T20:39:15.284Z,94569.81
2022-09-14T20:42:16.990Z,94566.31
2022-09-14T20:45:20.595Z,94557.19
2022-09-14T20:48:26.231Z,94570.53
2022-09-14T20:51:30.389Z,94565.56
2022-09-14T20:54:32.580Z,94576.66
2022-09-14T20:57:34.480Z,94575.88
2022-09-14T21:00:36.425Z,94591.41
2022-09-14T21:03:42.540Z,94583.66
2022-09-14T21:06:45.511Z,94584.72
2022-09-14T21:09:47.171Z,94574.69
2022-09-14T21:12:49.746Z,94571.50
2022-09-14T21:15:53.577Z,94581.06
2022-09-14T21:19:00.178Z,94573.59
2022-09-14T21:22:02.313Z,94581.53
2022-09-14T21:25:07.325Z,94586.09
2022-09-14T21:28:09.032Z,94589.13
2022-09-14T21:31:14.375Z,94583.81
2022-09-14T21:34:18.647Z,94579.69
2022-09-14T21:37:22.704Z,94589.44
2022-09-14T21:40:25.375Z,94589.56
2022-09-14T21:43:29.012Z,94586.22
2022-09-14T21:46:31.862Z,94597.47
2022-09-14T21:49:35.563Z,94592.28
2022-09-14T21:52:40.957Z,94601.28
2022-09-14T21:55:43.965Z,94588.19
2022-09-14T21:58:49.919Z,94606.13
2022-09-14T22:01:52.321Z,94598.25
2022-09-14T22:04:56.439Z,94590.19
2022-09-14T22:08:00.419Z,94585.63
2022-09-14T22:11:04.113Z,94583.06
2022-09-14T22:14:08.321Z,94582.91
2022-09-14T22:17:12.124Z,94571.38
2022-09-14T22:20:17.167Z,94586.56
2022-09-14T22:23:18.942Z,94570.59
2022-09-14T22:26:21.508Z,94582.16
2022-09-14T22:29:24.125Z,94564.22
2022-09-14T22:32:27.895Z,94559.50
2022-09-14T22:35:32.870Z,94570.00
2022-09-14T22:38:35.105Z,94563.41
2022-09-14T22:41:37.386Z,94570.75
2022-09-14T22:44:39.254Z,94566.94
2022-09-14T22:47:42.307Z,94560.69
2022-09-14T22:50:46.982Z,94568.16
2022-09-14T22:53:48.743Z,94581.22
2022-09-14T22:56:51.365Z,94582.41
2022-09-14T22:59:54.405Z,94571.03
2022-09-14T23:02:59.970Z,94579.81
2022-09-14T23:06:04.290Z,94592.44
2022-09-14T23:09:08.884Z,94601.53
2022-09-14T23:12:12.253Z,94605.50
2022-09-14T23:15:14.265Z,94602.16
2022-09-14T23:18:16.056Z,94591.06
2022-09-14T23:21:21.594Z,94591.06
2022-09-14T23:24:23.909Z,94596.84
2022-09-14T23:27:28.366Z,94599.56
2022-09-14T23:30:31.795Z,94610.66
2022-09-14T23:33:33.657Z,94610.66
2022-09-14T23:36:38.614Z,94611.72
2022-09-14T23:39:40.600Z,94605.19
2022-09-14T23:42:43.795Z,94607.78
2022-09-14T23:45:47.380Z,94623.84
2022-09-14T23:48:49.681Z,94630.53
2022-09-14T23:51:53.909Z,94630.09
2022-09-14T23:54:56.694Z,94619.00
2022-09-14T23:57:59.589Z,94635.50
